Time;durP1;ratioP1;P1;durP2;ratioP2;P2;SDS_P1;SDS_P2;PMS_P1;PMS_P2;Temp;Humidity;BMP_temperature;BMP_pressure;BME280_temperature;BME280_humidity;BME280_pressure;Samples;Min_cycle;Max_cycle;Signal;HPM_P1;HPM_P2
2022/08/04 00:01:16;;;;;;;9.38;3.30;;;;;;;23.41;54.40;99828.13;5060972;28;20040;-72
2022/08/04 00:03:45;;;;;;;;;;;;;;;23.63;54.30;99833.66;5063142;28;20021;-71
2022/08/04 00:06:29;;;;;;;6.57;3.63;;;;;;;23.66;53.84;99844.81;5062120;28;19920;-72
2022/08/04 00:09:01;;;;;;;4.65;3.75;;;;;;;23.75;54.24;99835.22;5061090;28;20060;-72
2022/08/04 00:11:32;;;;;;;3.97;3.13;;;;;;;23.82;53.81;99826.94;5062271;28;20322;-72
2022/08/04 00:14:03;;;;;;;5.68;3.70;;;;;;;24.01;54.42;99841.06;5060940;28;20327;-72
2022/08/04 00:16:32;;;;;;;7.10;3.42;;;;;;;24.11;54.23;99844.72;5062092;28;20033;-72
2022/08/04 00:19:03;;;;;;;4.07;3.05;;;;;;;24.18;53.35;99848.09;5061227;28;20078;-72
2022/08/04 00:21:32;;;;;;;4.68;3.17;;;;;;;24.25;53.24;99852.50;5060173;28;20210;-72
2022/08/04 00:24:00;;;;;;;6.63;3.28;;;;;;;24.32;53.01;99850.47;5061379;28;20340;-73
2022/08/04 00:26:27;;;;;;;7.97;3.75;;;;;;;24.41;52.70;99844.38;5062902;28;20033;-72
2022/08/04 00:28:52;;;;;;;6.57;3.70;;;;;;;24.47;53.11;99854.19;5061049;28;20047;-72
2022/08/04 00:31:19;;;;;;;8.98;3.50;;;;;;;24.49;52.48;99851.25;5062084;28;20349;-72
2022/08/04 00:33:45;;;;;;;6.45;3.20;;;;;;;24.49;53.08;99848.53;5061272;28;20048;-72
2022/08/04 00:36:12;;;;;;;6.30;3.25;;;;;;;24.32;53.71;99845.06;5060391;28;20040;-72
2022/08/04 00:38:42;;;;;;;4.45;3.22;;;;;;;24.31;54.71;99851.53;5062163;28;20048;-72
2022/08/04 00:41:18;;;;;;;5.60;3.38;;;;;;;24.38;52.86;99849.47;5063965;28;20377;-72
2022/08/04 00:44:05;;;;;;;6.45;3.38;;;;;;;24.29;53.32;99853.69;5061281;28;20043;-72
2022/08/04 00:46:44;;;;;;;6.90;2.97;;;;;;;24.27;53.94;99856.63;5060942;28;20100;-72
2022/08/04 00:49:35;;;;;;;5.97;3.13;;;;;;;24.28;53.84;99860.16;5061197;28;20138;-72
2022/08/04 00:52:13;;;;;;;9.95;4.47;;;;;;;24.32;53.13;99861.28;5032441;28;20104;-72
2022/08/04 00:55:03;;;;;;;4.72;3.75;;;;;;;24.16;53.27;99861.03;5074747;28;20033;-72
2022/08/04 00:57:48;;;;;;;4.35;3.35;;;;;;;24.15;53.70;99862.09;5060971;28;20029;-72
2022/08/04 01:00:14;;;;;;;;;;;;;;;24.14;53.31;99859.66;5060410;28;20043;-72
2022/08/04 01:03:13;;;;;;;8.18;3.70;;;;;;;24.01;53.51;99854.59;5060357;28;20080;-72
2022/08/04 01:06:22;;;;;;;4.97;3.92;;;;;;;23.89;55.36;99860.03;5059571;28;20039;-72
2022/08/04 01:09:09;;;;;;;9.73;4.07;;;;;;;23.77;54.64;99859.31;5057070;28;20071;-72
2022/08/04 01:12:05;;;;;;;9.88;4.40;;;;;;;23.86;55.31;99861.38;5058855;28;20380;-72
2022/08/04 01:14:54;;;;;;;5.25;4.22;;;;;;;23.58;54.92;99814.66;5062093;28;20044;-72
2022/08/04 01:17:53;;;;;;;6.82;4.20;;;;;;;23.39;55.50;99868.91;5061287;28;20031;-72
2022/08/04 01:20:25;;;;;;;4.85;3.78;;;;;;;22.98;58.22;99861.91;5058842;28;20033;-73
2022/08/04 01:23:19;;;;;;;5.43;4.30;;;;;;;22.85;59.51;99870.25;5058990;28;20249;-73
2022/08/04 01:25:48;;;;;;;;;;;;;;;22.89;58.95;99869.56;5035688;28;20095;-72
2022/08/04 01:28:42;;;;;;;8.48;4.15;;;;;;;22.98;59.12;99869.19;5061247;28;20241;-72
2022/08/04 01:31:25;;;;;;;5.78;4.30;;;;;;;22.95;57.77;99865.09;5060503;28;20330;-71
2022/08/04 01:33:56;;;;;;;8.15;4.60;;;;;;;22.74;58.23;99841.38;5059953;28;20033;-72
2022/08/04 01:36:24;;;;;;;7.22;4.43;;;;;;;23.02;57.87;99870.34;5060444;28;20097;-72
2022/08/04 01:38:53;;;;;;;6.45;4.43;;;;;;;23.06;58.02;99876.91;5059316;28;20378;-72
2022/08/04 01:41:20;;;;;;;6.78;4.13;;;;;;;23.10;57.54;99883.47;5058602;28;20102;-72
2022/08/04 01:43:46;;;;;;;8.45;4.63;;;;;;;23.15;57.16;99870.91;5056356;28;20091;-72
2022/08/04 01:46:16;;;;;;;6.78;4.13;;;;;;;22.92;57.28;99868.28;5072220;28;20088;-72
2022/08/04 01:48:45;;;;;;;6.63;4.40;;;;;;;22.92;57.00;99873.69;5059739;28;20052;-72
2022/08/04 01:51:11;;;;;;;5.38;4.18;;;;;;;22.91;57.47;99858.53;5059463;28;20091;-72
2022/08/04 01:53:41;;;;;;;10.40;4.65;;;;;;;23.02;57.51;99871.19;5059677;28;20323;-71
2022/08/04 01:56:09;;;;;;;6.93;4.03;;;;;;;23.12;56.92;99865.16;5058225;28;20067;-72
2022/08/04 01:58:36;;;;;;;6.28;3.97;;;;;;;23.02;57.38;99873.06;5059452;28;20043;-71
2022/08/04 02:01:10;;;;;;;5.80;4.38;;;;;;;22.86;58.71;99863.81;5059633;28;20295;-71
2022/08/04 02:03:37;;;;;;;;;;;;;;;22.85;58.19;99859.47;5059155;28;20547;-72
2022/08/04 02:06:21;;;;;;;13.27;4.22;;;;;;;22.60;58.51;99865.13;5058443;28;19912;-72
2022/08/04 02:08:57;;;;;;;6.93;4.05;;;;;;;22.35;58.91;99857.28;5058997;28;20311;-74
2022/08/04 02:11:23;;;;;;;5.45;4.18;;;;;;;22.17;60.33;99871.72;5058772;28;20028;-74
2022/08/04 02:17:36;;;;;;;6.05;4.43;;;;;;;22.22;59.99;99852.16;5034936;28;20036;-73
2022/08/04 02:20:18;;;;;;;8.98;4.40;;;;;;;22.41;60.35;99866.31;5058138;28;20037;-72
2022/08/04 02:22:57;;;;;;;4.65;3.92;;;;;;;22.45;59.57;99859.41;5059366;28;20032;-73
2022/08/04 02:25:26;;;;;;;12.50;4.70;;;;;;;22.49;59.02;99874.88;5058536;28;20067;-72
2022/08/04 02:28:08;;;;;;;6.32;4.35;;;;;;;22.59;59.19;99869.69;5059070;28;20032;-71
2022/08/04 02:30:45;;;;;;;6.80;4.50;;;;;;;22.62;58.99;99866.53;5060210;28;20160;-72
2022/08/04 02:33:17;;;;;;;5.85;4.25;;;;;;;22.76;59.00;99875.19;5059444;28;20032;-73
2022/08/04 02:35:45;;;;;;;8.73;5.00;;;;;;;22.79;58.30;99872.00;5074554;28;20741;-72
2022/08/04 02:38:22;;;;;;;5.13;4.50;;;;;;;22.82;58.35;99865.34;5053446;28;20067;-72
2022/08/04 02:40:52;;;;;;;12.75;4.22;;;;;;;22.84;58.65;99855.94;5058072;28;20112;-72
2022/08/04 02:43:19;;;;;;;9.85;4.47;;;;;;;22.86;58.52;99869.19;5057850;28;20112;-73
2022/08/04 02:45:46;;;;;;;9.95;4.32;;;;;;;22.78;58.11;99864.97;5059203;28;20349;-72
2022/08/04 02:48:13;;;;;;;7.72;4.38;;;;;;;22.65;58.56;99873.31;5059225;28;20037;-72
2022/08/04 02:50:42;;;;;;;8.93;4.43;;;;;;;22.47;59.56;99868.91;5058184;28;20074;-73
2022/08/04 02:53:12;;;;;;;5.97;3.88;;;;;;;22.41;59.91;99869.84;5059716;28;20585;-73
2022/08/04 02:55:41;;;;;;;7.65;4.40;;;;;;;22.33;59.55;99866.69;5059339;28;20021;-73
2022/08/04 02:58:08;;;;;;;6.93;3.95;;;;;;;22.33;60.01;99880.16;5059123;28;20104;-73
2022/08/04 03:00:35;;;;;;;15.27;5.13;;;;;;;22.25;60.47;99871.38;5059002;28;20025;-72
2022/08/04 03:03:43;;;;;;;11.88;5.28;;;;;;;22.29;61.38;99877.13;5059169;28;20114;-71
2022/08/04 03:06:10;;;;;;;9.90;5.20;;;;;;;22.58;61.62;99880.72;4993973;28;20054;-72
2022/08/04 03:08:44;;;;;;;12.02;5.22;;;;;;;22.54;62.58;99887.66;5045184;28;20044;-72
2022/08/04 03:11:28;;;;;;;10.95;5.65;;;;;;;22.55;62.48;99887.44;5069901;28;20384;-72
2022/08/04 03:14:21;;;;;;;10.68;6.13;;;;;;;22.63;62.13;99887.06;5057555;28;20247;-72
2022/08/04 03:16:50;;;;;;;10.70;6.72;;;;;;;22.70;62.15;99883.41;5058806;28;20033;-72
2022/08/04 03:19:33;;;;;;;10.43;6.40;;;;;;;22.72;61.64;99890.22;5058410;28;20033;-72
2022/08/04 03:22:26;;;;;;;11.77;6.10;;;;;;;22.68;61.67;99890.94;5059070;28;20079;-72
2022/08/04 03:25:38;;;;;;;27.75;6.85;;;;;;;22.69;61.96;99900.66;5054952;28;20036;-72
2022/08/04 03:28:34;;;;;;;10.63;5.75;;;;;;;22.59;62.33;99895.88;5034083;28;20073;-72
2022/08/04 03:31:37;;;;;;;12.35;6.10;;;;;;;22.51;63.18;99897.06;5056126;28;20041;-72
2022/08/04 03:34:32;;;;;;;14.35;6.38;;;;;;;22.49;62.79;99892.94;5059354;28;20071;-72
2022/08/04 03:37:16;;;;;;;9.50;6.20;;;;;;;22.51;61.85;99888.94;5061684;28;20048;-72
2022/08/04 03:40:24;;;;;;;11.98;5.97;;;;;;;22.63;61.98;99884.38;5061005;28;20241;-72
2022/08/04 03:43:11;;;;;;;14.52;6.13;;;;;;;22.78;61.32;99891.13;5061854;28;20029;-72
2022/08/04 03:46:04;;;;;;;15.63;6.15;;;;;;;22.78;62.04;99902.75;5061924;28;20385;-72
2022/08/04 03:48:52;;;;;;;13.95;6.78;;;;;;;22.81;62.78;99901.50;5060788;28;20421;-72
2022/08/04 03:54:44;;;;;;;10.55;7.05;;;;;;;23.06;62.46;99890.41;5034085;28;20071;-72
2022/08/04 03:57:43;;;;;;;12.13;7.20;;;;;;;23.11;62.40;99885.94;5062109;28;20086;-71
2022/08/04 04:00:17;;;;;;;11.10;7.32;;;;;;;23.09;62.36;99889.94;5062412;28;20073;-72
2022/08/04 04:02:49;;;;;;;10.13;6.43;;;;;;;23.18;62.11;99888.50;5063346;28;20036;-72
2022/08/04 04:05:20;;;;;;;10.90;6.88;;;;;;;23.14;61.85;99890.03;5063152;28;20118;-72
2022/08/04 04:08:11;;;;;;;10.95;6.82;;;;;;;23.19;61.79;99890.97;5060603;28;20033;-72
2022/08/04 04:10:54;;;;;;;17.17;6.47;;;;;;;23.22;61.90;99897.75;5057313;28;20063;-72
2022/08/04 04:13:51;;;;;;;10.23;7.10;;;;;;;23.10;62.67;99888.88;5061971;28;20045;-72
2022/08/04 04:16:19;;;;;;;9.20;6.80;;;;;;;23.01;63.21;99893.03;5060538;28;20377;-72
2022/08/04 04:19:14;;;;;;;9.27;6.95;;;;;;;22.89;64.27;99896.56;5060678;28;20060;-72
2022/08/04 04:22:01;;;;;;;9.35;7.20;;;;;;;23.07;64.21;99894.75;5057928;28;20044;-72
2022/08/04 04:24:39;;;;;;;16.65;6.65;;;;;;;23.09;64.04;99911.56;5058458;28;20040;-72
2022/08/04 04:27:17;;;;;;;12.18;7.07;;;;;;;23.24;63.60;99907.25;5059019;28;20281;-72
2022/08/04 04:30:11;;;;;;;11.98;7.05;;;;;;;23.42;63.06;99906.25;5061191;28;20326;-72
2022/08/04 04:32:57;;;;;;;10.93;6.97;;;;;;;23.51;62.55;99906.69;5058538;28;20020;-72
2022/08/04 04:35:28;;;;;;;13.60;6.53;;;;;;;23.50;61.84;99903.16;5056953;28;20152;-71
2022/08/04 04:38:20;;;;;;;10.27;5.95;;;;;;;23.54;61.70;99900.78;5060471;28;20032;-72
2022/08/04 04:40:54;;;;;;;7.45;6.13;;;;;;;23.61;61.24;99900.66;5056928;28;20033;-72
2022/08/04 04:43:38;;;;;;;9.57;5.70;;;;;;;23.75;60.39;99910.94;5058989;28;20043;-73
2022/08/04 04:46:32;;;;;;;11.80;5.90;;;;;;;23.72;60.62;99906.00;5057453;28;20035;-72
2022/08/04 04:49:02;;;;;;;10.10;5.95;;;;;;;23.78;59.27;99907.75;5057601;28;20286;-72
2022/08/04 04:51:30;;;;;;;7.38;5.57;;;;;;;23.98;58.84;99901.88;5059011;28;20033;-73
2022/08/04 04:54:23;;;;;;;8.75;4.93;;;;;;;24.24;58.17;99902.28;5059150;28;21259;-72
2022/08/04 04:57:12;;;;;;;8.73;5.28;;;;;;;24.30;57.26;99904.03;5060969;28;20099;-72
2022/08/04 04:59:56;;;;;;;9.15;5.20;;;;;;;24.55;56.90;99901.69;5057479;28;20041;-72
2022/08/04 05:02:51;;;;;;;8.63;5.30;;;;;;;24.70;55.97;99907.31;5057928;28;20337;-72
2022/08/04 05:05:31;;;;;;;11.57;5.57;;;;;;;24.60;55.10;99880.09;5058592;28;20048;-72
2022/08/04 05:08:18;;;;;;;7.60;5.18;;;;;;;24.67;55.20;99910.50;5060165;28;20028;-72
2022/08/04 05:11:17;;;;;;;16.25;5.60;;;;;;;24.80;55.95;99917.44;5055979;28;20040;-72
2022/08/04 05:13:47;;;;;;;6.93;5.30;;;;;;;25.20;55.22;99916.38;5059251;28;20096;-72
2022/08/04 05:16:20;;;;;;;8.88;5.68;;;;;;;25.52;54.34;99908.31;5058670;28;20285;-72
2022/08/04 05:18:57;;;;;;;13.05;5.13;;;;;;;25.65;52.87;99907.91;5059349;28;20037;-72
2022/08/04 05:21:28;;;;;;;13.38;6.22;;;;;;;25.66;53.05;99906.84;5057919;28;20578;-72
2022/08/04 05:24:01;;;;;;;7.78;5.50;;;;;;;25.73;52.94;99907.47;5058339;28;20053;-72
2022/08/04 05:26:32;;;;;;;9.15;5.97;;;;;;;26.08;52.40;99904.25;5055259;28;20104;-73
2022/08/04 05:29:02;;;;;;;9.15;6.45;;;;;;;26.39;50.91;99911.56;5056614;28;20064;-72
2022/08/04 05:31:36;;;;;;;13.25;5.10;;;;;;;26.43;51.02;99906.44;5059219;28;20053;-72
2022/08/04 05:34:11;;;;;;;9.50;4.82;;;;;;;26.68;50.08;99906.56;5058247;28;20195;-72
2022/08/04 05:36:42;;;;;;;9.20;4.70;;;;;;;26.92;49.05;99900.69;5059994;28;20029;-72
2022/08/04 05:39:24;;;;;;;11.55;4.38;;;;;;;27.14;48.63;99903.28;5059523;28;20509;-72
2022/08/04 05:41:50;;;;;;;7.20;4.47;;;;;;;27.29;47.79;99908.75;5058868;28;20025;-72
2022/08/04 05:44:17;;;;;;;8.63;4.80;;;;;;;27.38;46.65;99887.31;5057805;28;20037;-72
2022/08/04 05:46:46;;;;;;;11.45;4.07;;;;;;;27.41;45.95;99906.63;5057283;28;20249;-72
2022/08/04 05:49:12;;;;;;;6.35;4.28;;;;;;;27.50;46.21;99909.63;5058200;28;20112;-72
2022/08/04 05:51:39;;;;;;;5.57;3.85;;;;;;;27.60;46.29;99910.50;5058156;28;20100;-72
2022/08/04 05:54:06;;;;;;;7.35;4.50;;;;;;;27.57;45.90;99911.00;5058793;28;20040;-72
2022/08/04 05:56:34;;;;;;;4.47;3.65;;;;;;;27.53;46.46;99907.19;5056046;28;20068;-72
2022/08/04 05:59:03;;;;;;;6.05;3.97;;;;;;;27.49;46.75;99906.09;5058639;28;20099;-72
2022/08/04 06:01:29;;;;;;;6.70;4.38;;;;;;;27.50;46.86;99913.16;5058127;28;20046;-72
2022/08/04 06:03:58;;;;;;;4.55;3.47;;;;;;;27.63;45.47;99912.66;5057242;28;20165;-72
2022/08/04 06:06:24;;;;;;;4.68;3.67;;;;;;;27.79;43.96;99901.81;5056953;28;20397;-72
2022/08/04 06:08:50;;;;;;;6.68;3.88;;;;;;;27.81;43.78;99907.78;5058882;28;20381;-72
2022/08/04 06:11:18;;;;;;;6.03;4.05;;;;;;;27.80;43.92;99912.41;5058122;28;20036;-72
2022/08/04 06:13:52;;;;;;;5.85;4.22;;;;;;;27.83;43.74;99920.03;5059013;28;20025;-72
2022/08/04 06:16:23;;;;;;;6.90;4.50;;;;;;;27.92;43.63;99917.59;5058291;28;20028;-72
2022/08/04 06:18:52;;;;;;;9.50;4.68;;;;;;;27.93;43.59;99914.59;5058592;28;20736;-72
2022/08/04 06:21:23;;;;;;;5.13;4.40;;;;;;;28.02;43.83;99928.47;5058621;28;20045;-72
2022/08/04 06:23:51;;;;;;;7.40;5.07;;;;;;;27.76;45.10;99922.22;5055922;28;20071;-72
2022/08/04 06:26:18;;;;;;;5.90;4.85;;;;;;;27.92;44.57;99914.88;5056358;28;20101;-72
2022/08/04 06:28:51;;;;;;;14.82;4.95;;;;;;;28.29;44.05;99910.00;5059334;28;20013;-72
2022/08/04 06:31:41;;;;;;;6.63;4.80;;;;;;;28.29;44.23;99901.84;5057020;28;20281;-72
2022/08/04 06:34:09;;;;;;;7.90;5.28;;;;;;;28.78;43.81;99901.16;5055763;28;20037;-72
2022/08/04 06:36:37;;;;;;;12.35;5.45;;;;;;;28.91;43.00;99895.16;5058249;28;20020;-72
2022/08/04 06:39:04;;;;;;;12.38;4.80;;;;;;;28.86;43.11;99897.88;5058430;28;20035;-72
2022/08/04 06:41:31;;;;;;;6.88;4.43;;;;;;;29.15;42.27;99906.25;5056837;28;20033;-72
2022/08/04 06:44:04;;;;;;;12.43;6.75;;;;;;;29.16;41.84;99902.41;5056945;28;20025;-72
2022/08/04 06:46:31;;;;;;;8.88;4.68;;;;;;;29.37;41.71;99899.56;5070418;28;20135;-72
2022/08/04 06:48:58;;;;;;;11.70;4.60;;;;;;;29.74;40.95;99893.63;5057972;28;20032;-72
2022/08/04 06:51:24;;;;;;;7.47;4.38;;;;;;;29.77;40.52;99895.78;5057460;28;20041;-72
2022/08/04 06:53:50;;;;;;;14.32;4.47;;;;;;;29.73;40.65;99884.63;5056630;28;20029;-72
2022/08/04 06:56:18;;;;;;;5.50;4.47;;;;;;;30.05;39.87;99895.03;5055356;28;20217;-72
2022/08/04 06:58:46;;;;;;;9.07;4.00;;;;;;;29.98;39.94;99897.25;5058280;28;20089;-73
2022/08/04 07:01:17;;;;;;;6.97;4.03;;;;;;;30.14;39.60;99897.94;5057374;28;21402;-73
2022/08/04 07:03:43;;;;;;;7.32;4.30;;;;;;;30.41;38.88;99890.06;5057151;28;20025;-73
2022/08/04 07:06:09;;;;;;;5.18;4.00;;;;;;;30.48;38.52;99886.97;5057740;28;20334;-72
2022/08/04 07:08:35;;;;;;;5.00;3.90;;;;;;;30.50;38.25;99888.31;5059291;28;20025;-72
2022/08/04 07:11:01;;;;;;;5.07;4.43;;;;;;;30.54;38.56;99894.00;5063277;28;20064;-72
2022/08/04 07:13:29;;;;;;;6.47;4.80;;;;;;;30.43;38.52;99893.31;5060602;28;20032;-72
2022/08/04 07:15:57;;;;;;;4.97;3.78;;;;;;;30.54;38.99;99894.00;5062157;28;20222;-73
2022/08/04 07:18:22;;;;;;;6.70;3.63;;;;;;;30.68;37.01;99883.22;5062089;28;20036;-72
2022/08/04 07:20:49;;;;;;;6.65;4.35;;;;;;;30.71;37.75;99893.56;5061532;28;20096;-72
2022/08/04 07:23:20;;;;;;;3.65;3.20;;;;;;;31.02;37.11;99897.56;5062643;28;20036;-72
2022/08/04 07:25:53;;;;;;;5.05;3.53;;;;;;;30.98;36.92;99885.56;5061893;28;20036;-72
2022/08/04 07:28:21;;;;;;;8.20;3.13;;;;;;;31.16;37.13;99888.66;5062425;28;20045;-72
2022/08/04 07:30:48;;;;;;;6.63;3.38;;;;;;;31.79;36.27;99894.59;5060921;28;20048;-72
2022/08/04 07:33:16;;;;;;;7.28;3.90;;;;;;;31.72;35.03;99892.25;5062740;28;20033;-72
2022/08/04 07:35:42;;;;;;;4.85;3.65;;;;;;;31.52;35.80;99898.00;5062058;28;20155;-72
2022/08/04 07:38:08;;;;;;;6.60;4.13;;;;;;;31.48;35.15;99894.25;5060833;28;20075;-73
2022/08/04 07:40:35;;;;;;;11.02;3.40;;;;;;;31.66;35.07;99895.34;5063466;28;20167;-73
2022/08/04 07:43:01;;;;;;;10.02;3.72;;;;;;;31.89;35.31;99890.88;5060735;28;20409;-73
2022/08/04 07:45:27;;;;;;;5.28;3.28;;;;;;;32.27;34.14;99886.97;5062238;28;20036;-72
2022/08/04 07:47:52;;;;;;;5.13;3.50;;;;;;;32.28;34.51;99883.13;5061353;28;20269;-72
2022/08/04 07:50:19;;;;;;;6.28;3.60;;;;;;;32.42;34.01;99872.19;5060974;28;20068;-72
2022/08/04 07:52:45;;;;;;;7.95;3.35;;;;;;;32.30;34.10;99875.41;5060064;28;20080;-72
2022/08/04 07:55:12;;;;;;;5.20;3.80;;;;;;;32.25;33.97;99877.41;5061532;28;20039;-72
2022/08/04 07:57:38;;;;;;;9.40;3.50;;;;;;;32.38;34.13;99871.97;5061715;28;20028;-72
2022/08/04 08:00:05;;;;;;;10.95;3.58;;;;;;;32.38;33.73;99866.50;5060183;28;20066;-73
2022/08/04 08:02:32;;;;;;;5.43;3.65;;;;;;;32.51;33.66;99870.34;5059260;28;20044;-73
2022/08/04 08:04:58;;;;;;;6.38;3.42;;;;;;;32.51;33.08;99858.56;5062283;28;20082;-73
2022/08/04 08:07:24;;;;;;;8.77;3.53;;;;;;;32.46;33.94;99864.97;5076053;28;20040;-73
2022/08/04 08:09:49;;;;;;;5.25;3.67;;;;;;;32.35;33.20;99860.81;5059273;28;20033;-73
2022/08/04 08:12:15;;;;;;;6.65;3.38;;;;;;;32.50;33.63;99856.94;5063660;28;20037;-73
2022/08/04 08:14:42;;;;;;;6.03;3.00;;;;;;;32.72;33.38;99857.03;5076372;28;20040;-73
2022/08/04 08:17:07;;;;;;;5.22;3.50;;;;;;;32.97;32.75;99864.75;5059930;28;20033;-73
2022/08/04 08:19:34;;;;;;;5.40;3.70;;;;;;;32.87;31.96;99839.50;5060692;28;20340;-72
2022/08/04 08:22:01;;;;;;;3.63;2.50;;;;;;;32.83;31.11;99855.75;5061410;28;20051;-72
2022/08/04 08:24:33;;;;;;;2.78;2.40;;;;;;;32.86;30.43;99849.66;5060811;28;20037;-72
2022/08/04 08:27:03;;;;;;;4.63;2.40;;;;;;;33.38;28.53;99854.84;5060737;28;20036;-72
2022/08/04 08:29:29;;;;;;;8.38;3.17;;;;;;;33.27;30.28;99844.06;5058947;28;20255;-72
2022/08/04 08:31:55;;;;;;;3.67;3.20;;;;;;;33.59;30.32;99848.56;5060724;28;20041;-72
2022/08/04 08:34:21;;;;;;;5.70;2.70;;;;;;;33.60;29.08;99846.63;5061503;28;20044;-72
2022/08/04 08:37:01;;;;;;;2.97;2.67;;;;;;;33.61;29.85;99851.81;5060197;28;20053;-72
2022/08/04 08:39:58;;;;;;;5.32;2.80;;;;;;;33.48;30.01;99843.63;5058423;28;20037;-72
2022/08/04 08:42:37;;;;;;;5.20;2.40;;;;;;;33.75;28.25;99842.69;5060136;28;20039;-72
2022/08/04 08:45:11;;;;;;;8.95;2.22;;;;;;;33.81;28.24;99839.53;5060305;28;20032;-72
2022/08/04 08:47:58;;;;;;;3.25;2.65;;;;;;;34.15;26.91;99838.09;5061523;28;20024;-72
2022/08/04 08:50:44;;;;;;;2.60;2.40;;;;;;;34.28;27.47;99835.25;5060330;28;20045;-72
2022/08/04 08:53:46;;;;;;;7.25;2.80;;;;;;;34.34;26.80;99835.16;5059601;28;20071;-73
2022/08/04 08:56:12;;;;;;;3.90;2.45;;;;;;;34.12;27.81;99834.03;5059636;28;20044;-72
2022/08/04 08:59:02;;;;;;;4.88;2.83;;;;;;;34.09;27.86;99831.13;5059498;28;20187;-72
2022/08/04 09:01:46;;;;;;;3.08;2.25;;;;;;;34.11;27.70;99835.16;5058877;28;20135;-72
2022/08/04 09:04:20;;;;;;;;;;;;;;;34.13;27.37;99829.34;5060155;28;20441;-72
2022/08/04 09:06:54;;;;;;;3.90;3.20;;;;;;;33.61;28.54;99827.09;5060471;28;19947;-72
2022/08/04 09:09:56;;;;;;;4.10;2.22;;;;;;;33.51;26.85;99824.59;5058833;28;20040;-73
2022/08/04 09:12:49;;;;;;;11.98;2.80;;;;;;;33.81;25.71;99822.22;5073048;28;20330;-72
2022/08/04 09:15:23;;;;;;;5.85;2.55;;;;;;;34.12;26.04;99814.81;5058378;28;20029;-72
2022/08/04 09:18:01;;;;;;;4.30;2.40;;;;;;;34.04;25.98;99809.28;5059558;28;20334;-72
2022/08/04 09:20:50;;;;;;;3.45;2.10;;;;;;;34.14;26.37;99803.50;5058538;28;20392;-72
2022/08/04 09:23:37;;;;;;;4.80;2.13;;;;;;;34.07;27.26;99808.63;5059083;28;20107;-72
2022/08/04 09:26:33;;;;;;;6.50;2.10;;;;;;;33.86;27.61;99800.94;5058188;28;20059;-72
2022/08/04 09:29:09;;;;;;;5.15;2.60;;;;;;;34.00;27.62;99797.28;5034648;28;20037;-72
2022/08/04 09:31:48;;;;;;;3.13;2.20;;;;;;;34.21;26.54;99795.59;5058918;28;20082;-72
2022/08/04 09:34:50;;;;;;;4.60;2.30;;;;;;;34.32;26.05;99799.72;5058002;28;20032;-72
2022/08/04 09:37:37;;;;;;;3.78;2.80;;;;;;;33.92;25.76;99790.63;5040384;28;20208;-73
2022/08/04 09:40:27;;;;;;;5.65;2.30;;;;;;;33.74;26.13;99791.63;5058659;28;20333;-72
2022/08/04 09:43:31;;;;;;;3.80;2.40;;;;;;;33.66;26.11;99795.94;5058599;28;20041;-72
2022/08/04 09:46:18;;;;;;;3.30;2.20;;;;;;;33.54;26.17;99796.53;5057821;28;20035;-72
2022/08/04 09:49:12;;;;;;;6.88;2.50;;;;;;;33.53;26.29;99791.34;5058208;28;20017;-72
2022/08/04 09:51:49;;;;;;;2.50;2.08;;;;;;;33.49;26.42;99787.59;5075398;28;20189;-72
2022/08/04 09:54:44;;;;;;;2.60;2.25;;;;;;;33.41;26.85;99783.69;5059236;28;20035;-72
2022/08/04 09:57:46;;;;;;;4.65;2.15;;;;;;;33.39;25.85;99785.13;5058242;28;20200;-72
2022/08/04 10:00:16;;;;;;;5.25;1.98;;;;;;;33.38;27.44;99784.31;5038032;28;20106;-72
2022/08/04 10:02:54;;;;;;;4.57;1.95;;;;;;;33.42;26.48;99777.06;5058949;28;20060;-72
2022/08/04 10:05:24;;;;;;;3.03;2.22;;;;;;;33.30;26.53;99780.38;5057001;28;20048;-73
2022/08/04 10:07:56;;;;;;;5.30;2.50;;;;;;;33.37;25.93;99771.72;5058243;28;20033;-72
2022/08/04 10:10:49;;;;;;;3.25;2.67;;;;;;;33.17;26.56;99777.63;5058295;28;20044;-73
2022/08/04 10:13:47;;;;;;;13.20;8.80;;;;;;;33.22;25.95;99778.31;5059139;28;20029;-72
2022/08/04 10:16:30;;;;;;;5.05;2.70;;;;;;;33.10;27.26;99777.25;5059623;28;20032;-72
2022/08/04 10:19:27;;;;;;;4.70;2.40;;;;;;;33.19;25.50;99778.13;5060250;28;20059;-72
2022/08/04 10:21:58;;;;;;;3.70;2.17;;;;;;;33.06;25.32;99766.09;5059244;28;20033;-72
2022/08/04 10:24:52;;;;;;;4.75;2.30;;;;;;;32.99;27.01;99755.53;5060670;28;20029;-73
2022/08/04 10:27:29;;;;;;;3.35;2.25;;;;;;;33.24;26.93;99764.28;5059366;28;20033;-72
2022/08/04 10:30:01;;;;;;;3.47;2.10;;;;;;;33.39;25.80;99755.75;5060224;28;20064;-72
2022/08/04 10:32:39;;;;;;;4.30;2.40;;;;;;;33.08;26.12;99755.63;5059490;28;20032;-72
2022/08/04 10:35:12;;;;;;;4.85;2.13;;;;;;;33.11;25.24;99759.66;5059319;28;20047;-72
2022/08/04 10:38:02;;;;;;;4.40;2.00;;;;;;;33.05;25.33;99749.94;5060459;28;20033;-72
2022/08/04 10:40:44;;;;;;;3.97;2.15;;;;;;;33.09;25.13;99750.94;5060170;28;20028;-72
2022/08/04 10:43:33;;;;;;;5.88;2.08;;;;;;;32.93;25.79;99747.75;5059330;28;20326;-72
2022/08/04 10:46:30;;;;;;;6.43;2.40;;;;;;;33.05;27.11;99744.44;5058944;28;20285;-72
2022/08/04 10:49:03;;;;;;;3.17;1.90;;;;;;;33.15;26.38;99725.00;5046227;28;20066;-72
2022/08/04 10:51:49;;;;;;;3.95;2.13;;;;;;;33.24;26.26;99732.16;5060412;28;20215;-72
2022/08/04 10:54:23;;;;;;;5.00;2.20;;;;;;;33.20;25.77;99735.84;5060101;28;20101;-72
2022/08/04 10:56:53;;;;;;;3.47;1.85;;;;;;;33.26;25.29;99729.13;5059911;28;20040;-72
2022/08/04 10:59:37;;;;;;;2.28;2.08;;;;;;;33.29;26.15;99725.75;5060062;28;20099;-72
2022/08/04 11:02:24;;;;;;;2.08;1.70;;;;;;;33.51;25.34;99723.03;5059650;28;20031;-73
2022/08/04 11:05:12;;;;;;;4.03;2.13;;;;;;;33.31;24.56;99724.38;5060140;28;20357;-72
2022/08/04 11:07:42;;;;;;;2.20;1.90;;;;;;;33.34;24.41;99722.13;5060063;28;20025;-72
2022/08/04 11:10:08;;;;;;;4.32;1.80;;;;;;;33.17;25.34;99720.81;5059478;28;20064;-72
2022/08/04 11:12:36;;;;;;;4.80;2.20;;;;;;;32.83;25.52;99718.63;5059761;28;20025;-72
2022/08/04 11:15:10;;;;;;;5.30;2.22;;;;;;;32.55;25.82;99701.41;5059471;28;20032;-72
2022/08/04 11:17:49;;;;;;;3.90;2.20;;;;;;;32.79;25.95;99711.34;5058637;28;20049;-72
2022/08/04 11:20:24;;;;;;;8.88;2.53;;;;;;;32.91;25.88;99700.63;5059570;28;20353;-72
2022/08/04 11:23:01;;;;;;;3.38;2.28;;;;;;;33.03;25.63;99698.13;5059577;28;20033;-72
2022/08/04 11:25:51;;;;;;;5.43;2.55;;;;;;;33.18;25.78;99694.19;5058359;28;20040;-72
2022/08/04 11:28:26;;;;;;;7.30;2.00;;;;;;;33.35;25.02;99696.28;5049343;28;20048;-72
2022/08/04 11:31:01;;;;;;;3.03;2.47;;;;;;;33.22;25.03;99692.44;5059644;28;20212;-72
2022/08/04 11:33:33;;;;;;;6.70;1.80;;;;;;;33.19;24.61;99688.41;5058572;28;20037;-72
2022/08/04 11:36:06;;;;;;;4.82;2.10;;;;;;;33.04;24.97;99679.75;5054969;28;20095;-72
2022/08/04 11:38:51;;;;;;;;;;;;;;;32.91;25.01;99684.16;5055447;28;20043;-72
2022/08/04 11:41:41;;;;;;;4.90;2.20;;;;;;;32.79;25.25;99673.75;5055236;28;19925;-72
2022/08/04 11:44:15;;;;;;;6.38;2.20;;;;;;;33.05;24.87;99676.69;5054216;28;20036;-72
2022/08/04 11:46:50;;;;;;;4.80;1.92;;;;;;;33.22;25.00;99676.78;5055667;28;20114;-72
2022/08/04 11:49:28;;;;;;;2.28;2.08;;;;;;;33.27;24.62;99671.16;5055771;28;20044;-72
2022/08/04 11:51:57;;;;;;;2.72;1.90;;;;;;;33.24;23.45;99677.28;5054654;28;20037;-72
2022/08/04 11:54:23;;;;;;;3.55;2.00;;;;;;;32.99;24.16;99676.00;5054979;28;20021;-72
2022/08/04 11:56:48;;;;;;;2.55;2.00;;;;;;;32.96;24.25;99665.66;5057905;28;20086;-72
2022/08/04 11:59:14;;;;;;;3.72;2.15;;;;;;;32.63;24.56;99666.97;5060001;28;20032;-72
2022/08/04 12:02:06;;;;;;;2.67;2.13;;;;;;;32.71;25.33;99660.75;5058479;28;20096;-72
2022/08/04 12:04:50;;;;;;;3.97;2.00;;;;;;;32.63;25.34;99656.81;5055759;28;20036;-72
2022/08/04 12:07:47;;;;;;;19.00;3.20;;;;;;;32.87;25.92;99650.25;5059199;28;20268;-72
2022/08/04 12:10:41;;;;;;;2.80;2.15;;;;;;;32.93;25.17;99638.84;5059175;28;20033;-73
2022/08/04 12:13:28;;;;;;;4.13;2.00;;;;;;;33.06;24.81;99645.38;5057883;28;20028;-73
2022/08/04 12:16:14;;;;;;;3.63;1.95;;;;;;;33.15;24.06;99639.94;5058156;28;20040;-73
2022/08/04 12:18:49;;;;;;;5.50;2.50;;;;;;;33.11;24.23;99637.03;5058089;28;20031;-73
2022/08/04 12:21:28;;;;;;;3.33;2.17;;;;;;;33.25;23.73;99637.75;5058082;28;20048;-72
2022/08/04 12:24:01;;;;;;;5.05;1.90;;;;;;;33.43;24.42;99638.72;5073952;28;20020;-72
2022/08/04 12:26:41;;;;;;;6.75;1.88;;;;;;;33.54;23.19;99637.31;5058794;28;20040;-72